createdAt,value
2018-03-25T00:02:07.928Z,99.90
2018-03-25T00:04:35.477Z,99.90
2018-03-25T00:07:03.808Z,99.90
2018-03-25T00:09:31.358Z,99.90
2018-03-25T00:11:58.930Z,99.90
2018-03-25T00:14:26.486Z,99.90
2018-03-25T00:16:54.066Z,99.90
2018-03-25T00:19:21.613Z,99.90
2018-03-25T00:21:49.956Z,99.90
2018-03-25T00:24:17.502Z,99.90
2018-03-25T00:26:45.105Z,99.90
2018-03-25T00:29:12.653Z,99.90
2018-03-25T00:31:40.228Z,99.90
2018-03-25T00:34:07.781Z,99.90
2018-03-25T00:36:36.116Z,99.90
2018-03-25T00:39:04.430Z,99.90
2018-03-25T00:41:32.026Z,99.90
2018-03-25T00:44:00.341Z,99.90
2018-03-25T00:46:27.893Z,99.90
2018-03-25T00:48:56.232Z,99.90
2018-03-25T00:51:23.782Z,99.90
2018-03-25T00:53:51.357Z,99.90
2018-03-25T00:56:18.910Z,99.90
2018-03-25T00:58:46.482Z,99.90
2018-03-25T01:01:14.037Z,99.90
2018-03-25T01:03:42.377Z,99.90
2018-03-25T01:06:09.930Z,99.90
2018-03-25T01:08:37.496Z,99.90
2018-03-25T01:11:05.064Z,99.90
2018-03-25T01:13:32.632Z,99.90
2018-03-25T01:16:12.940Z,99.90
2018-03-25T01:18:40.495Z,99.90
2018-03-25T01:21:08.036Z,99.90
2018-03-25T01:23:35.620Z,99.90
2018-03-25T01:26:03.164Z,99.90
2018-03-25T01:28:31.467Z,99.90
2018-03-25T01:30:59.065Z,99.90
2018-03-25T01:33:26.600Z,99.90
2018-03-25T01:35:54.177Z,99.90
2018-03-25T01:38:22.486Z,99.90
2018-03-25T01:40:50.084Z,99.90
2018-03-25T01:43:18.390Z,99.90
2018-03-25T01:45:45.952Z,99.90
2018-03-25T01:48:14.251Z,99.90
2018-03-25T01:50:41.811Z,99.90
2018-03-25T01:53:09.356Z,99.90
2018-03-25T01:55:36.923Z,99.90
2018-03-25T01:58:04.463Z,99.90
2018-03-25T02:00:32.793Z,99.90
2018-03-25T02:03:00.330Z,99.90
2018-03-25T02:05:28.676Z,99.90
2018-03-25T02:07:56.220Z,99.90
2018-03-25T02:10:23.764Z,99.90
2018-03-25T02:12:52.104Z,99.90
2018-03-25T02:15:19.656Z,99.90
2018-03-25T02:17:47.220Z,99.90
2018-03-25T02:20:14.766Z,99.90
2018-03-25T02:22:43.101Z,99.90
2018-03-25T02:25:10.640Z,99.90
2018-03-25T02:27:38.204Z,99.90
2018-03-25T02:30:05.754Z,99.90
2018-03-25T02:32:34.109Z,99.90
2018-03-25T02:35:01.656Z,99.90
2018-03-25T02:37:29.228Z,99.90
2018-03-25T02:39:56.776Z,99.90
2018-03-25T02:42:25.082Z,99.90
2018-03-25T02:44:52.659Z,99.90
2018-03-25T02:47:20.205Z,99.90
2018-03-25T02:49:48.528Z,99.90
2018-03-25T02:52:16.081Z,99.90
2018-03-25T02:54:43.644Z,99.90
2018-03-25T02:57:11.971Z,99.90
2018-03-25T02:59:39.533Z,99.90
2018-03-25T03:02:07.069Z,99.90
2018-03-25T03:04:35.475Z,99.90
2018-03-25T03:07:03.025Z,99.90
2018-03-25T03:09:31.367Z,99.90
2018-03-25T03:11:58.903Z,99.90
2018-03-25T03:14:26.481Z,99.90
2018-03-25T03:16:54.041Z,99.90
2018-03-25T03:19:22.351Z,99.90
2018-03-25T03:21:49.931Z,99.90
2018-03-25T03:24:17.481Z,99.90
2018-03-25T03:26:45.044Z,99.90
2018-03-25T03:29:13.353Z,99.90
2018-03-25T03:31:40.908Z,99.90
2018-03-25T03:34:08.467Z,99.90
2018-03-25T03:36:36.791Z,99.90
2018-03-25T03:39:04.332Z,99.90
2018-03-25T03:41:32.702Z,99.90
2018-03-25T03:44:00.242Z,99.90
2018-03-25T03:46:27.824Z,99.90
2018-03-25T03:48:55.378Z,99.90
2018-03-25T03:51:23.696Z,99.90
2018-03-25T03:53:51.273Z,99.90
2018-03-25T03:56:18.826Z,99.90
2018-03-25T03:58:46.396Z,99.90
2018-03-25T04:01:13.963Z,99.90
2018-03-25T04:03:41.528Z,99.90
2018-03-25T04:06:09.080Z,99.90
2018-03-25T04:08:36.650Z,99.90
2018-03-25T04:11:04.195Z,99.90
2018-03-25T04:13:32.544Z,99.90
2018-03-25T04:16:00.105Z,99.90
2018-03-25T04:18:27.680Z,99.90
2018-03-25T04:20:55.216Z,99.90
2018-03-25T04:23:22.801Z,99.90
2018-03-25T04:25:50.358Z,99.90
2018-03-25T04:28:17.936Z,99.90
2018-03-25T04:30:45.510Z,99.90
2018-03-25T04:33:13.056Z,99.90
2018-03-25T04:35:41.388Z,99.90
2018-03-25T04:38:08.927Z,99.90
2018-03-25T04:40:37.251Z,99.90
2018-03-25T04:43:04.808Z,99.90
2018-03-25T04:45:32.384Z,99.90
2018-03-25T04:47:59.919Z,99.90
2018-03-25T04:50:29.053Z,99.90
2018-03-25T04:52:56.621Z,99.90
2018-03-25T04:55:24.204Z,99.90
2018-03-25T04:57:51.739Z,99.90
2018-03-25T05:00:19.294Z,99.90
2018-03-25T05:02:46.894Z,99.90
2018-03-25T05:05:15.199Z,99.90
2018-03-25T05:07:42.779Z,99.90
2018-03-25T05:10:10.328Z,99.90
2018-03-25T05:12:38.668Z,99.90
2018-03-25T05:15:06.221Z,99.90
2018-03-25T05:17:33.791Z,99.90
2018-03-25T05:20:01.340Z,99.90
2018-03-25T05:22:28.900Z,99.90
2018-03-25T05:24:57.199Z,99.90
2018-03-25T05:27:25.540Z,99.90
2018-03-25T05:29:53.109Z,99.90
2018-03-25T05:32:20.670Z,99.90
2018-03-25T05:34:48.247Z,99.90
2018-03-25T05:37:15.791Z,99.90
2018-03-25T05:39:43.363Z,99.90
2018-03-25T05:42:10.924Z,99.90
2018-03-25T05:44:38.487Z,99.90
2018-03-25T05:47:06.793Z,99.90
2018-03-25T05:49:34.367Z,99.90
2018-03-25T05:52:01.916Z,99.90
2018-03-25T05:54:29.489Z,99.90
2018-03-25T05:56:57.050Z,99.90
2018-03-25T05:59:25.396Z,99.90
2018-03-25T06:01:52.951Z,99.90
2018-03-25T06:04:20.496Z,99.90
2018-03-25T06:06:48.878Z,99.90
2018-03-25T06:09:16.396Z,99.90
2018-03-25T06:11:43.962Z,99.90
2018-03-25T06:14:11.523Z,99.90
2018-03-25T06:16:39.100Z,99.90
2018-03-25T06:19:06.639Z,99.90
2018-03-25T06:21:34.964Z,99.90
2018-03-25T06:24:02.508Z,99.90
2018-03-25T06:26:30.833Z,99.90
2018-03-25T06:28:58.388Z,99.90
2018-03-25T06:31:25.973Z,99.90
2018-03-25T06:33:53.508Z,99.90
2018-03-25T06:36:21.808Z,99.90
2018-03-25T06:38:49.362Z,99.90
2018-03-25T06:41:17.669Z,99.90
2018-03-25T06:43:45.223Z,99.90
2018-03-25T06:46:13.546Z,99.90
2018-03-25T06:48:41.112Z,99.90
2018-03-25T06:51:08.658Z,99.90
2018-03-25T06:53:36.223Z,99.90
2018-03-25T06:56:04.531Z,99.90
2018-03-25T06:58:32.092Z,99.90
2018-03-25T07:01:00.401Z,99.90
2018-03-25T07:03:27.976Z,99.90
2018-03-25T07:05:55.534Z,99.90
2018-03-25T07:08:23.968Z,99.90
2018-03-25T07:10:51.521Z,99.90
2018-03-25T07:13:19.059Z,99.90
2018-03-25T07:15:47.362Z,99.90
2018-03-25T07:18:14.904Z,99.90
2018-03-25T07:20:43.287Z,99.90
2018-03-25T07:23:10.831Z,99.90
2018-03-25T07:25:41.035Z,99.90
2018-03-25T07:28:08.572Z,99.90
2018-03-25T07:30:37.992Z,99.90
2018-03-25T07:33:05.538Z,99.90
2018-03-25T07:35:33.903Z,99.90
2018-03-25T07:38:01.473Z,99.90
2018-03-25T07:40:29.032Z,99.90
2018-03-25T07:42:56.572Z,99.90
2018-03-25T07:45:24.148Z,99.90
2018-03-25T07:47:51.721Z,99.90
2018-03-25T07:50:20.031Z,99.90
2018-03-25T07:52:47.601Z,99.90
2018-03-25T07:55:15.144Z,99.90
2018-03-25T07:57:42.728Z,99.90
2018-03-25T08:00:11.039Z,99.90
2018-03-25T08:02:38.596Z,99.90
2018-03-25T08:05:06.154Z,99.90
2018-03-25T08:07:34.484Z,99.00
2018-03-25T08:10:02.040Z,99.00
2018-03-25T08:12:29.605Z,98.40
2018-03-25T08:14:57.160Z,98.20
2018-03-25T08:17:25.473Z,98.00
2018-03-25T08:19:53.052Z,97.90
2018-03-25T08:22:20.592Z,97.90
2018-03-25T08:24:48.925Z,96.80
2018-03-25T08:27:16.468Z,96.80
2018-03-25T08:29:44.034Z,97.20
2018-03-25T08:32:12.342Z,95.00
2018-03-25T08:34:39.902Z,95.00
2018-03-25T08:37:07.449Z,94.80
2018-03-25T08:39:35.784Z,94.90
2018-03-25T08:42:03.328Z,94.90
2018-03-25T08:44:30.904Z,94.00
2018-03-25T08:46:58.445Z,92.90
2018-03-25T08:49:26.007Z,92.70
2018-03-25T08:51:53.543Z,92.90
2018-03-25T08:54:21.136Z,91.30
2018-03-25T08:56:48.672Z,90.70
2018-03-25T08:59:16.208Z,91.40
2018-03-25T09:01:43.776Z,89.70
2018-03-25T09:04:11.312Z,89.50
2018-03-25T09:06:39.648Z,84.80
2018-03-25T09:09:07.960Z,84.00
2018-03-25T09:11:35.580Z,84.00
2018-03-25T09:14:03.128Z,79.80
2018-03-25T09:16:30.696Z,67.70
2018-03-25T09:18:58.324Z,64.20
2018-03-25T09:21:26.660Z,60.80
2018-03-25T09:23:54.227Z,60.80
2018-03-25T09:26:21.868Z,68.40
2018-03-25T09:28:49.432Z,66.20
2018-03-25T09:31:17.788Z,65.40
2018-03-25T09:33:45.385Z,65.50
2018-03-25T09:36:14.079Z,57.60
2018-03-25T09:38:42.714Z,60.40
2018-03-25T09:41:10.260Z,61.20
2018-03-25T09:43:38.590Z,63.00
2018-03-25T09:46:06.132Z,63.00
2018-03-25T09:48:33.695Z,58.80
2018-03-25T09:51:02.008Z,58.60
2018-03-25T09:53:29.577Z,58.60
2018-03-25T09:55:57.156Z,56.80
2018-03-25T09:58:24.813Z,57.70
2018-03-25T10:00:57.968Z,57.10
2018-03-25T10:03:31.340Z,57.00
2018-03-25T10:05:59.342Z,58.60
2018-03-25T10:08:26.908Z,55.90
2018-03-25T10:10:54.443Z,56.90
2018-03-25T10:13:22.767Z,56.10
2018-03-25T10:15:50.325Z,55.90
2018-03-25T10:18:17.880Z,54.20
2018-03-25T10:20:46.232Z,52.30
2018-03-25T10:23:13.787Z,52.30
2018-03-25T10:25:41.328Z,54.00
2018-03-25T10:28:08.896Z,51.30
2018-03-25T10:30:36.665Z,49.70
2018-03-25T10:33:04.478Z,46.90
2018-03-25T10:35:32.290Z,48.10
2018-03-25T10:38:00.130Z,47.70
2018-03-25T10:40:28.625Z,47.30
2018-03-25T10:42:56.464Z,47.30
2018-03-25T10:45:24.266Z,46.60
2018-03-25T10:47:52.103Z,45.70
2018-03-25T10:50:20.630Z,45.80
2018-03-25T10:52:48.599Z,46.40
2018-03-25T10:55:16.163Z,44.50
2018-03-25T10:57:44.491Z,45.50
2018-03-25T11:00:12.061Z,45.50
2018-03-25T11:02:39.600Z,48.20
2018-03-25T11:05:07.929Z,43.70
2018-03-25T11:07:35.468Z,43.70
2018-03-25T11:10:03.035Z,45.70
2018-03-25T11:12:30.747Z,42.80
2018-03-25T11:14:58.556Z,42.70
2018-03-25T11:17:26.412Z,42.20
2018-03-25T11:19:54.972Z,44.10
2018-03-25T11:22:22.764Z,44.10
2018-03-25T11:24:50.613Z,44.50
2018-03-25T11:27:18.361Z,45.10
2018-03-25T11:29:46.229Z,44.20
2018-03-25T11:32:14.034Z,43.90
2018-03-25T11:34:41.910Z,45.70
2018-03-25T11:37:10.162Z,45.70
2018-03-25T11:39:38.055Z,46.90
2018-03-25T11:42:05.756Z,43.90
2018-03-25T11:44:33.639Z,44.50
2018-03-25T11:47:01.454Z,43.30
2018-03-25T11:49:29.268Z,43.20
2018-03-25T11:52:01.169Z,41.90
2018-03-25T11:54:29.017Z,42.30
2018-03-25T11:56:56.776Z,41.40
2018-03-25T11:59:24.557Z,43.20
2018-03-25T12:01:53.164Z,41.00
2018-03-25T12:04:21.160Z,41.00
2018-03-25T12:06:49.679Z,45.00
2018-03-25T12:09:17.463Z,45.00
2018-03-25T12:11:45.262Z,44.20
2018-03-25T12:14:13.103Z,43.20
2018-03-25T12:16:40.918Z,43.20
2018-03-25T12:19:09.459Z,44.40
2018-03-25T12:21:37.135Z,44.40
2018-03-25T12:24:05.753Z,46.50
2018-03-25T12:26:33.676Z,46.50
2018-03-25T12:29:01.407Z,44.60
2018-03-25T12:31:29.272Z,42.70
2018-03-25T12:33:57.827Z,43.70
2018-03-25T12:36:25.710Z,43.60
2018-03-25T12:38:53.465Z,44.30
2018-03-25T12:41:21.240Z,44.00
2018-03-25T12:43:48.955Z,42.60
2018-03-25T12:46:17.572Z,42.00
2018-03-25T12:48:45.412Z,42.00
2018-03-25T12:51:13.927Z,43.60
2018-03-25T12:53:42.482Z,43.70
2018-03-25T12:56:10.246Z,43.60
2018-03-25T12:58:37.952Z,43.00
2018-03-25T13:01:06.141Z,41.70
2018-03-25T13:03:33.931Z,43.70
2018-03-25T13:06:01.666Z,43.30
2018-03-25T13:08:30.131Z,42.90
2018-03-25T13:10:58.654Z,43.10
2018-03-25T13:13:27.209Z,42.00
2018-03-25T13:15:55.327Z,42.00
2018-03-25T13:18:23.155Z,43.30
2018-03-25T13:20:50.935Z,44.20
2018-03-25T13:23:18.676Z,44.20
2018-03-25T13:25:46.564Z,45.50
2018-03-25T13:28:15.091Z,44.20
2018-03-25T13:30:42.966Z,44.20
2018-03-25T13:33:10.759Z,44.80
2018-03-25T13:35:39.303Z,43.50
2018-03-25T13:38:07.675Z,43.50
2018-03-25T13:40:35.492Z,42.50
2018-03-25T13:43:03.966Z,43.90
2018-03-25T13:45:31.693Z,43.80
2018-03-25T13:47:59.477Z,44.00
2018-03-25T13:50:27.386Z,42.70
2018-03-25T13:52:55.225Z,41.30
2018-03-25T13:55:23.786Z,41.10
2018-03-25T13:57:52.226Z,41.90
2018-03-25T14:00:19.801Z,41.90
2018-03-25T14:02:48.127Z,41.60
2018-03-25T14:05:15.667Z,41.50
2018-03-25T14:07:43.225Z,42.00
2018-03-25T14:10:10.775Z,41.50
2018-03-25T14:12:38.349Z,43.00
2018-03-25T14:15:05.886Z,45.80
2018-03-25T14:17:33.443Z,45.40
2018-03-25T14:20:00.983Z,42.00
2018-03-25T14:22:29.316Z,41.30
2018-03-25T14:24:56.856Z,41.20
2018-03-25T14:27:24.443Z,40.60
2018-03-25T14:29:52.039Z,40.40
2018-03-25T14:32:19.708Z,41.70
2018-03-25T14:34:47.244Z,41.70
2018-03-25T14:37:15.576Z,43.70
2018-03-25T14:39:43.120Z,43.70
2018-03-25T14:42:10.679Z,43.00
2018-03-25T14:44:38.225Z,43.60
2018-03-25T14:47:06.560Z,46.10
2018-03-25T14:49:34.105Z,46.10
2018-03-25T14:52:02.436Z,43.60
2018-03-25T14:54:29.977Z,43.50
2018-03-25T14:56:57.554Z,44.30
2018-03-25T14:59:25.228Z,46.00
2018-03-25T15:01:52.789Z,46.80
2018-03-25T15:04:20.336Z,45.10
2018-03-25T15:06:47.907Z,46.30
2018-03-25T15:09:16.226Z,45.50
2018-03-25T15:11:43.787Z,46.10
2018-03-25T15:14:12.093Z,47.20
2018-03-25T15:16:39.677Z,47.20
2018-03-25T15:19:07.230Z,48.80
2018-03-25T15:21:34.788Z,48.00
2018-03-25T15:24:03.097Z,47.70
2018-03-25T15:26:30.660Z,47.60
2018-03-25T15:28:58.208Z,48.80
2018-03-25T15:31:26.536Z,50.90
2018-03-25T15:33:54.080Z,50.90
2018-03-25T15:36:22.390Z,52.20
2018-03-25T15:38:49.951Z,52.20
2018-03-25T15:41:19.068Z,51.70
2018-03-25T15:43:46.628Z,51.70
2018-03-25T15:46:14.942Z,55.00
2018-03-25T15:48:42.504Z,55.00
2018-03-25T15:51:10.049Z,54.80
2018-03-25T15:53:38.376Z,57.50
2018-03-25T15:56:05.925Z,57.50
2018-03-25T15:58:33.488Z,57.80
2018-03-25T16:01:01.801Z,59.60
2018-03-25T16:03:29.366Z,59.60
2018-03-25T16:05:56.900Z,60.80
2018-03-25T16:08:24.460Z,61.90
2018-03-25T16:10:52.004Z,61.50
2018-03-25T16:13:19.595Z,61.90
2018-03-25T16:15:47.139Z,62.30
2018-03-25T16:18:14.704Z,63.10
2018-03-25T16:20:42.256Z,64.90
2018-03-25T16:23:09.832Z,65.60
2018-03-25T16:25:37.367Z,66.40
2018-03-25T16:28:04.944Z,67.30
2018-03-25T16:30:32.489Z,67.90
2018-03-25T16:33:00.808Z,70.30
2018-03-25T16:35:28.348Z,70.30
2018-03-25T16:37:55.901Z,71.70
2018-03-25T16:40:23.449Z,72.40
2018-03-25T16:42:51.004Z,73.10
2018-03-25T16:45:19.304Z,74.80
2018-03-25T16:47:47.637Z,75.50
2018-03-25T16:50:15.189Z,75.60
2018-03-25T16:52:42.756Z,78.30
2018-03-25T16:55:10.302Z,79.90
2018-03-25T16:57:37.873Z,81.20
2018-03-25T17:00:06.184Z,80.90
2018-03-25T17:02:33.752Z,80.80
2018-03-25T17:05:01.287Z,73.60
2018-03-25T17:07:28.836Z,73.40
2018-03-25T17:09:56.372Z,75.90
2018-03-25T17:12:23.933Z,78.10
2018-03-25T17:14:51.674Z,80.10
2018-03-25T17:17:20.019Z,83.30
2018-03-25T17:19:47.560Z,83.20
2018-03-25T17:22:15.865Z,85.70
2018-03-25T17:24:43.427Z,85.70
2018-03-25T17:27:10.989Z,87.30
2018-03-25T17:29:38.551Z,89.20
2018-03-25T17:32:06.859Z,92.40
2018-03-25T17:34:34.416Z,92.40
2018-03-25T17:37:02.720Z,91.40
2018-03-25T17:39:30.286Z,91.40
2018-03-25T17:41:57.897Z,92.00
2018-03-25T17:44:25.427Z,93.80
2018-03-25T17:46:53.734Z,93.50
2018-03-25T17:49:21.294Z,93.50
2018-03-25T17:51:48.832Z,93.70
2018-03-25T17:54:16.396Z,94.40
2018-03-25T17:56:43.935Z,95.10
2018-03-25T17:59:11.488Z,94.90
2018-03-25T18:01:39.027Z,94.70
2018-03-25T18:04:07.356Z,94.60
2018-03-25T18:06:34.896Z,94.50
2018-03-25T18:09:03.224Z,94.30
2018-03-25T18:11:30.768Z,94.30
2018-03-25T18:13:58.309Z,94.80
2018-03-25T18:16:25.869Z,95.70
2018-03-25T18:18:53.421Z,95.90
2018-03-25T18:21:20.979Z,95.90
2018-03-25T18:23:48.521Z,96.30
2018-03-25T18:26:16.865Z,95.90
2018-03-25T18:28:44.411Z,95.90
2018-03-25T18:31:11.973Z,95.90
2018-03-25T18:33:39.519Z,97.20
2018-03-25T18:36:07.850Z,98.00
2018-03-25T18:38:35.387Z,98.00
2018-03-25T18:41:03.713Z,97.40
2018-03-25T18:43:31.261Z,97.40
2018-03-25T18:45:58.827Z,96.90
2018-03-25T18:48:26.368Z,96.20
2018-03-25T18:50:53.936Z,96.50
2018-03-25T18:53:21.519Z,96.40
2018-03-25T18:55:49.885Z,98.50
2018-03-25T18:58:17.423Z,98.20
2018-03-25T19:00:44.975Z,98.00
2018-03-25T19:03:12.834Z,97.80
2018-03-25T19:05:40.396Z,97.40
2018-03-25T19:08:07.960Z,96.70
2018-03-25T19:10:35.510Z,96.90
2018-03-25T19:13:03.088Z,97.90
2018-03-25T19:15:30.630Z,98.60
2018-03-25T19:17:58.193Z,99.10
2018-03-25T19:20:25.727Z,99.60
2018-03-25T19:22:53.292Z,99.20
2018-03-25T19:25:20.838Z,99.00
2018-03-25T19:27:48.396Z,98.90
2018-03-25T19:30:15.931Z,98.70
2018-03-25T19:32:44.255Z,97.40
2018-03-25T19:35:11.796Z,97.40
2018-03-25T19:37:40.135Z,95.40
2018-03-25T19:40:08.444Z,95.10
2018-03-25T19:42:36.004Z,95.10
2018-03-25T19:45:03.544Z,94.90
2018-03-25T19:47:31.127Z,95.20
2018-03-25T19:49:58.669Z,95.00
2018-03-25T19:52:30.918Z,94.60
2018-03-25T19:54:58.700Z,94.50
2018-03-25T19:57:26.258Z,95.00
2018-03-25T19:59:53.798Z,95.10
2018-03-25T20:02:21.361Z,94.80
2018-03-25T20:04:48.910Z,94.60
2018-03-25T20:07:16.477Z,94.50
2018-03-25T20:09:44.036Z,94.50
2018-03-25T20:12:12.366Z,94.90
2018-03-25T20:14:39.952Z,94.80
2018-03-25T20:17:07.496Z,95.10
2018-03-25T20:19:35.055Z,95.10
2018-03-25T20:22:04.428Z,95.10
2018-03-25T20:24:32.009Z,94.90
2018-03-25T20:26:59.594Z,94.70
2018-03-25T20:29:27.952Z,95.70
2018-03-25T20:31:55.496Z,95.70
2018-03-25T20:34:23.057Z,96.10
2018-03-25T20:36:50.596Z,96.60
2018-03-25T20:39:18.156Z,96.90
2018-03-25T20:41:45.692Z,96.90
2018-03-25T20:44:13.563Z,97.40
2018-03-25T20:46:41.393Z,97.50
2018-03-25T20:49:09.000Z,97.50
2018-03-25T20:51:36.536Z,97.60
2018-03-25T20:54:04.091Z,97.60
2018-03-25T20:56:31.631Z,98.10
2018-03-25T20:58:59.203Z,98.10
2018-03-25T21:01:26.739Z,98.00
2018-03-25T21:03:55.079Z,98.50
2018-03-25T21:06:22.621Z,98.50
2018-03-25T21:08:50.186Z,98.50
2018-03-25T21:11:17.733Z,98.50
2018-03-25T21:13:46.056Z,98.20
2018-03-25T21:16:13.592Z,98.10
2018-03-25T21:18:41.533Z,98.10
2018-03-25T21:21:09.096Z,98.20
2018-03-25T21:23:36.652Z,98.60
2018-03-25T21:26:04.195Z,99.10
2018-03-25T21:28:32.528Z,98.90
2018-03-25T21:31:00.080Z,98.90
2018-03-25T21:33:27.620Z,99.50
2018-03-25T21:35:55.949Z,99.90
2018-03-25T21:38:23.492Z,99.90
2018-03-25T21:40:51.817Z,99.90
2018-03-25T21:43:19.357Z,99.90
2018-03-25T21:45:47.680Z,99.90
2018-03-25T21:48:15.226Z,99.90
2018-03-25T21:50:42.780Z,99.90
2018-03-25T21:53:10.337Z,99.90
2018-03-25T21:55:37.897Z,99.90
2018-03-25T21:58:05.453Z,99.90
2018-03-25T22:00:33.018Z,99.90
2018-03-25T22:03:05.447Z,99.90
2018-03-25T22:05:33.766Z,99.90
2018-03-25T22:08:01.299Z,99.90
2018-03-25T22:10:28.884Z,99.90
2018-03-25T22:12:57.194Z,99.90
2018-03-25T22:15:24.759Z,99.90
2018-03-25T22:17:52.298Z,99.90
2018-03-25T22:20:19.877Z,99.90
2018-03-25T22:22:48.193Z,99.90
2018-03-25T22:25:15.757Z,99.90
2018-03-25T22:27:44.059Z,99.90
2018-03-25T22:30:11.611Z,99.90
2018-03-25T22:32:39.912Z,99.90
2018-03-25T22:35:07.469Z,99.90
2018-03-25T22:37:35.784Z,99.90
2018-03-25T22:40:03.348Z,99.90
2018-03-25T22:42:30.949Z,99.90
2018-03-25T22:44:58.509Z,99.90
2018-03-25T22:47:26.050Z,99.90
2018-03-25T22:49:54.372Z,99.90
2018-03-25T22:52:21.904Z,99.90
2018-03-25T22:54:50.204Z,99.90
2018-03-25T22:57:18.528Z,99.90
2018-03-25T22:59:46.068Z,99.90
2018-03-25T23:02:13.619Z,99.90
2018-03-25T23:04:41.923Z,99.90
2018-03-25T23:07:10.248Z,99.90
2018-03-25T23:09:37.784Z,99.90
2018-03-25T23:12:06.110Z,99.90
2018-03-25T23:14:33.643Z,99.90
2018-03-25T23:17:01.980Z,99.90
2018-03-25T23:19:29.516Z,99.90
2018-03-25T23:21:57.068Z,99.90
2018-03-25T23:24:25.414Z,99.90
2018-03-25T23:26:53.084Z,99.90
2018-03-25T23:29:20.615Z,99.90
2018-03-25T23:31:48.194Z,99.90
2018-03-25T23:34:15.760Z,99.90
2018-03-25T23:36:43.308Z,99.90
2018-03-25T23:39:10.854Z,99.90
2018-03-25T23:41:38.416Z,99.90
2018-03-25T23:44:05.948Z,99.90
2018-03-25T23:46:33.504Z,99.90
2018-03-25T23:49:01.804Z,99.90
2018-03-25T23:51:29.356Z,99.90
2018-03-25T23:53:57.664Z,99.90
2018-03-25T23:56:25.232Z,99.90
2018-03-25T23:58:52.792Z,99.90
